createdAt,value
2023-05-20T00:01:57.196Z,10.01
2023-05-20T00:04:26.106Z,10.07
2023-05-20T00:06:53.096Z,10.09
2023-05-20T00:09:20.005Z,10.03
2023-05-20T00:11:47.319Z,9.93
2023-05-20T00:14:14.365Z,10.08
2023-05-20T00:16:42.026Z,10.14
2023-05-20T00:19:09.908Z,10.16
2023-05-20T00:21:37.486Z,10.06
2023-05-20T00:24:04.458Z,10.38
2023-05-20T00:26:31.385Z,10.46
2023-05-20T00:28:59.082Z,10.33
2023-05-20T00:31:26.123Z,10.21
2023-05-20T00:34:18.360Z,10.33
2023-05-20T00:36:45.191Z,10.21
2023-05-20T00:39:13.490Z,10.12
2023-05-20T00:41:40.302Z,10.11
2023-05-20T00:44:07.249Z,10.16
2023-05-20T00:46:35.630Z,10.18
2023-05-20T00:49:02.577Z,10.31
2023-05-20T00:51:30.105Z,10.55
2023-05-20T00:54:02.423Z,10.79
2023-05-20T00:56:29.992Z,10.85
2023-05-20T00:58:58.005Z,10.89
2023-05-20T01:01:26.046Z,10.40
2023-05-20T01:03:53.556Z,10.24
2023-05-20T01:06:20.814Z,10.08
2023-05-20T01:08:48.108Z,10.03
2023-05-20T01:11:51.518Z,9.98
2023-05-20T01:14:24.674Z,9.94
2023-05-20T01:16:55.539Z,9.80
2023-05-20T01:19:31.509Z,9.65
2023-05-20T01:22:00.844Z,9.66
2023-05-20T01:24:27.644Z,9.68
2023-05-20T01:26:54.877Z,9.74
2023-05-20T01:29:21.831Z,9.57
2023-05-20T01:31:49.340Z,9.47
2023-05-20T01:34:16.383Z,9.50
2023-05-20T01:36:46.393Z,9.30
2023-05-20T01:39:15.416Z,9.34
2023-05-20T01:41:44.159Z,9.37
2023-05-20T01:44:11.814Z,9.38
2023-05-20T01:46:40.136Z,9.48
2023-05-20T01:49:07.212Z,9.75
2023-05-20T01:51:34.068Z,9.64
2023-05-20T01:54:01.318Z,9.58
2023-05-20T01:56:31.948Z,9.46
2023-05-20T01:59:00.482Z,9.39
2023-05-20T02:01:52.609Z,9.42
2023-05-20T02:04:22.471Z,9.43
2023-05-20T02:06:49.506Z,9.46
2023-05-20T02:09:18.403Z,9.32
2023-05-20T02:11:45.279Z,9.35
2023-05-20T02:14:12.511Z,9.37
2023-05-20T02:16:39.511Z,9.64
2023-05-20T02:19:06.656Z,9.76
2023-05-20T02:21:33.764Z,9.68
2023-05-20T02:24:00.857Z,9.76
2023-05-20T02:26:27.834Z,9.58
2023-05-20T02:28:55.700Z,9.44
2023-05-20T02:31:22.476Z,9.34
2023-05-20T02:33:50.014Z,9.28
2023-05-20T02:36:18.536Z,9.14
2023-05-20T02:38:46.093Z,9.11
2023-05-20T02:41:13.879Z,9.08
2023-05-20T02:43:44.094Z,9.38
2023-05-20T02:46:10.967Z,9.78
2023-05-20T02:48:39.959Z,9.98
2023-05-20T02:51:07.532Z,10.06
2023-05-20T02:53:34.992Z,9.71
2023-05-20T02:56:03.364Z,9.65
2023-05-20T02:58:32.556Z,9.42
2023-05-20T03:00:59.507Z,9.22
2023-05-20T03:03:26.609Z,9.15
2023-05-20T03:05:58.458Z,9.02
2023-05-20T03:08:26.046Z,9.18
2023-05-20T03:10:55.531Z,9.33
2023-05-20T03:13:22.285Z,9.51
2023-05-20T03:15:49.340Z,9.10
2023-05-20T03:18:17.316Z,9.17
2023-05-20T03:20:49.629Z,9.28
2023-05-20T03:23:18.043Z,9.33
2023-05-20T03:26:09.833Z,9.06
2023-05-20T03:28:37.038Z,8.96
2023-05-20T03:31:03.986Z,9.06
2023-05-20T03:33:55.638Z,9.53
2023-05-20T03:36:22.864Z,9.68
2023-05-20T03:38:50.240Z,9.39
2023-05-20T03:41:17.553Z,9.73
2023-05-20T03:43:44.875Z,9.88
2023-05-20T03:46:11.994Z,9.90
2023-05-20T03:48:38.968Z,10.06
2023-05-20T03:51:06.484Z,10.13
2023-05-20T03:53:33.799Z,10.20
2023-05-20T03:56:05.474Z,10.20
2023-05-20T03:58:32.374Z,10.12
2023-05-20T04:00:59.319Z,10.15
2023-05-20T04:03:26.804Z,10.22
2023-05-20T04:05:54.022Z,10.24
2023-05-20T04:08:22.175Z,10.26
2023-05-20T04:10:48.978Z,10.33
2023-05-20T04:13:16.550Z,10.35
2023-05-20T04:15:43.524Z,10.37
2023-05-20T04:18:12.446Z,10.35
2023-05-20T04:20:43.039Z,10.34
2023-05-20T04:23:14.500Z,10.27
2023-05-20T04:25:41.985Z,10.22
2023-05-20T04:28:08.962Z,10.18
2023-05-20T04:30:35.867Z,10.01
2023-05-20T04:33:02.953Z,9.87
2023-05-20T04:35:29.999Z,9.89
2023-05-20T04:38:01.414Z,9.94
2023-05-20T04:40:29.646Z,9.94
2023-05-20T04:43:00.206Z,9.98
2023-05-20T04:45:27.153Z,10.05
2023-05-20T04:47:58.529Z,10.11
2023-05-20T04:50:30.085Z,10.18
2023-05-20T04:53:00.612Z,10.46
2023-05-20T04:55:29.522Z,10.59
2023-05-20T04:57:56.786Z,10.83
2023-05-20T05:00:23.654Z,10.98
2023-05-20T05:02:50.611Z,11.03
2023-05-20T05:05:18.417Z,11.10
2023-05-20T05:07:46.113Z,11.22
2023-05-20T05:10:13.096Z,11.26
2023-05-20T05:13:05.778Z,11.27
2023-05-20T05:15:33.577Z,11.33
2023-05-20T05:18:06.571Z,11.42
2023-05-20T05:20:35.589Z,11.33
2023-05-20T05:23:02.641Z,11.29
2023-05-20T05:25:29.989Z,11.27
2023-05-20T05:27:59.798Z,11.47
2023-05-20T05:30:32.540Z,11.43
2023-05-20T05:33:01.461Z,11.56
2023-05-20T05:35:34.423Z,11.67
2023-05-20T05:38:02.294Z,11.79
2023-05-20T05:40:30.506Z,11.86
2023-05-20T05:42:59.003Z,11.93
2023-05-20T05:45:32.805Z,11.98
2023-05-20T05:47:59.911Z,12.07
2023-05-20T05:50:27.118Z,12.34
2023-05-20T05:52:54.482Z,12.55
2023-05-20T05:55:21.997Z,12.71
2023-05-20T05:57:48.962Z,12.79
2023-05-20T06:00:17.167Z,12.90
2023-05-20T06:02:47.840Z,13.08
2023-05-20T06:05:29.836Z,13.26
2023-05-20T06:08:21.475Z,13.26
2023-05-20T06:10:50.704Z,13.43
2023-05-20T06:13:18.165Z,13.49
2023-05-20T06:15:49.647Z,13.54
2023-05-20T06:18:18.563Z,13.64
2023-05-20T06:20:55.436Z,13.75
2023-05-20T06:23:48.647Z,13.82
2023-05-20T06:26:16.718Z,13.92
2023-05-20T06:28:43.525Z,14.08
2023-05-20T06:31:11.573Z,14.22
2023-05-20T06:33:39.738Z,14.36
2023-05-20T06:36:10.538Z,14.46
2023-05-20T06:38:41.585Z,14.57
2023-05-20T06:41:09.338Z,14.64
2023-05-20T06:43:36.135Z,14.69
2023-05-20T06:46:37.692Z,14.76
2023-05-20T06:49:09.894Z,14.85
2023-05-20T06:51:36.719Z,14.86
2023-05-20T06:54:04.594Z,14.92
2023-05-20T06:56:31.605Z,15.03
2023-05-20T06:58:59.456Z,15.14
2023-05-20T07:01:29.621Z,15.13
2023-05-20T07:03:57.158Z,15.17
2023-05-20T07:06:24.678Z,15.22
2023-05-20T07:08:52.114Z,15.04
2023-05-20T07:11:19.762Z,15.05
2023-05-20T07:13:46.697Z,15.02
2023-05-20T07:16:15.568Z,15.13
2023-05-20T07:18:47.133Z,14.99
2023-05-20T07:21:15.123Z,15.07
2023-05-20T07:23:50.463Z,15.12
2023-05-20T07:26:18.174Z,15.22
2023-05-20T07:28:45.082Z,15.22
2023-05-20T07:36:53.628Z,15.45
2023-05-20T07:39:20.555Z,15.53
2023-05-20T07:41:47.544Z,15.57
2023-05-20T07:44:14.421Z,15.70
2023-05-20T07:46:48.513Z,15.87
2023-05-20T07:49:15.452Z,15.96
2023-05-20T07:51:44.109Z,16.02
2023-05-20T07:54:13.568Z,16.19
2023-05-20T07:56:43.189Z,16.48
2023-05-20T07:59:35.880Z,16.61
2023-05-20T08:02:03.357Z,16.62
2023-05-20T08:04:31.187Z,16.74
2023-05-20T08:06:58.521Z,16.78
2023-05-20T08:09:41.033Z,16.78
2023-05-20T08:12:08.309Z,16.64
2023-05-20T08:14:35.250Z,16.64
2023-05-20T08:17:03.558Z,16.59
2023-05-20T08:19:30.609Z,16.39
2023-05-20T08:21:58.508Z,16.26
2023-05-20T08:24:25.391Z,16.27
2023-05-20T08:26:53.072Z,16.30
2023-05-20T08:29:45.548Z,16.43
2023-05-20T08:32:13.132Z,16.46
2023-05-20T08:34:41.997Z,16.42
2023-05-20T08:37:10.583Z,16.49
2023-05-20T08:39:38.162Z,16.68
2023-05-20T08:42:06.830Z,16.86
2023-05-20T08:44:34.911Z,17.04
2023-05-20T08:47:03.148Z,17.16
2023-05-20T08:49:30.352Z,17.21
2023-05-20T08:52:01.057Z,17.19
2023-05-20T08:54:42.712Z,17.25
2023-05-20T08:57:35.279Z,17.20
2023-05-20T09:00:05.588Z,17.22
2023-05-20T09:02:32.382Z,17.26
2023-05-20T09:05:03.139Z,17.27
2023-05-20T09:07:34.668Z,17.19
2023-05-20T09:10:01.534Z,17.27
2023-05-20T09:12:28.496Z,17.41
2023-05-20T09:14:55.653Z,17.51
2023-05-20T09:17:24.150Z,17.59
2023-05-20T09:19:52.820Z,17.78
2023-05-20T09:22:27.887Z,17.89
2023-05-20T09:24:56.105Z,18.11
2023-05-20T09:27:23.231Z,18.24
2023-05-20T09:29:50.858Z,18.26
2023-05-20T09:32:22.642Z,18.31
2023-05-20T09:34:51.109Z,18.50
2023-05-20T09:37:19.424Z,18.55
2023-05-20T09:39:52.420Z,18.69
2023-05-20T09:42:27.585Z,18.87
2023-05-20T09:44:58.815Z,18.85
2023-05-20T09:47:27.129Z,18.90
2023-05-20T09:49:55.514Z,19.01
2023-05-20T09:52:22.721Z,19.09
2023-05-20T09:57:42.406Z,19.24
2023-05-20T10:00:09.702Z,19.30
2023-05-20T10:02:49.420Z,19.36
2023-05-20T10:05:20.225Z,19.45
2023-05-20T10:08:22.669Z,19.56
2023-05-20T10:11:02.408Z,19.63
2023-05-20T10:13:39.530Z,19.67
2023-05-20T10:16:14.855Z,19.65
2023-05-20T10:18:48.613Z,19.72
2023-05-20T10:21:19.036Z,19.78
2023-05-20T10:23:46.095Z,19.90
2023-05-20T10:26:14.580Z,19.90
2023-05-20T10:29:17.761Z,19.98
2023-05-20T10:31:50.981Z,19.97
2023-05-20T10:34:20.095Z,20.09
2023-05-20T10:36:58.227Z,20.07
2023-05-20T10:39:31.837Z,20.09
2023-05-20T10:42:09.411Z,20.01
2023-05-20T10:44:47.378Z,19.98
2023-05-20T10:49:46.083Z,19.99
2023-05-20T10:52:19.705Z,20.09
2023-05-20T10:54:57.887Z,20.08
2023-05-20T10:57:27.398Z,20.08
2023-05-20T10:59:56.428Z,20.05
2023-05-20T11:02:24.494Z,20.22
2023-05-20T11:04:51.422Z,20.14
2023-05-20T11:07:32.643Z,20.21
2023-05-20T11:10:01.027Z,20.22
2023-05-20T11:12:28.554Z,20.29
2023-05-20T11:14:55.531Z,20.29
2023-05-20T11:17:22.659Z,20.37
2023-05-20T11:19:50.974Z,20.49
2023-05-20T11:22:17.775Z,20.43
2023-05-20T11:24:47.624Z,20.43
2023-05-20T11:27:14.521Z,20.39
2023-05-20T11:29:42.559Z,20.41
2023-05-20T11:32:09.518Z,20.41
2023-05-20T11:34:38.620Z,20.51
2023-05-20T11:37:11.119Z,20.50
2023-05-20T11:39:38.569Z,20.51
2023-05-20T11:42:05.500Z,20.52
2023-05-20T11:44:36.058Z,20.55
2023-05-20T11:47:04.617Z,20.72
2023-05-20T11:49:40.114Z,20.71
2023-05-20T11:52:09.554Z,20.65
2023-05-20T11:54:37.146Z,20.62
2023-05-20T11:57:06.856Z,20.62
2023-05-20T11:59:34.961Z,20.64
2023-05-20T12:11:47.350Z,21.23
2023-05-20T12:14:17.974Z,21.27
2023-05-20T12:16:45.365Z,21.26
2023-05-20T12:19:12.808Z,21.15
2023-05-20T12:21:40.761Z,21.13
2023-05-20T12:24:09.338Z,21.03
2023-05-20T12:26:36.818Z,21.00
2023-05-20T12:29:04.325Z,21.01
2023-05-20T12:31:34.842Z,21.12
2023-05-20T12:34:04.383Z,21.09
2023-05-20T12:36:32.381Z,21.12
2023-05-20T12:38:59.221Z,21.16
2023-05-20T12:41:28.345Z,21.09
2023-05-20T12:43:55.093Z,21.12
2023-05-20T12:46:24.412Z,21.09
2023-05-20T12:48:52.807Z,21.11
2023-05-20T12:51:19.831Z,21.10
2023-05-20T12:53:46.918Z,21.12
2023-05-20T12:56:15.261Z,21.13
2023-05-20T12:58:45.846Z,21.11
2023-05-20T13:01:13.428Z,21.16
2023-05-20T13:03:40.793Z,21.24
2023-05-20T13:06:07.767Z,21.27
2023-05-20T13:08:36.361Z,21.39
2023-05-20T13:11:03.872Z,21.32
2023-05-20T13:13:30.779Z,21.39
2023-05-20T13:16:01.438Z,21.38
2023-05-20T13:18:29.325Z,21.37
2023-05-20T13:20:56.060Z,21.36
2023-05-20T13:23:24.422Z,21.58
2023-05-20T13:25:51.313Z,21.63
2023-05-20T13:28:18.277Z,21.73
2023-05-20T13:30:45.126Z,21.83
2023-05-20T13:33:12.274Z,21.88
2023-05-20T13:35:39.161Z,21.88
2023-05-20T13:38:06.084Z,21.92
2023-05-20T13:40:33.043Z,21.94
2023-05-20T13:43:00.261Z,21.95
2023-05-20T13:45:32.345Z,21.93
2023-05-20T13:47:59.157Z,21.93
2023-05-20T13:50:51.542Z,21.91
2023-05-20T13:53:18.693Z,21.86
2023-05-20T13:55:45.838Z,21.83
2023-05-20T13:58:13.011Z,21.83
2023-05-20T14:00:40.412Z,21.84
2023-05-20T14:03:07.886Z,21.83
2023-05-20T14:05:36.327Z,21.75
2023-05-20T14:08:04.345Z,21.80
2023-05-20T14:10:35.001Z,21.91
2023-05-20T14:13:27.571Z,21.98
2023-05-20T14:15:55.851Z,22.05
2023-05-20T14:18:23.614Z,22.06
2023-05-20T14:20:50.353Z,22.01
2023-05-20T14:23:17.276Z,22.05
2023-05-20T14:25:48.397Z,22.09
2023-05-20T14:28:16.748Z,22.21
2023-05-20T14:30:43.531Z,22.26
2023-05-20T14:33:11.469Z,22.23
2023-05-20T14:35:39.647Z,22.22
2023-05-20T14:38:06.891Z,22.27
2023-05-20T14:40:34.624Z,22.26
2023-05-20T14:43:05.791Z,22.19
2023-05-20T14:45:32.659Z,22.19
2023-05-20T14:47:59.573Z,22.18
2023-05-20T14:50:26.307Z,22.18
2023-05-20T14:52:56.937Z,22.22
2023-05-20T14:55:23.706Z,22.10
2023-05-20T14:57:50.588Z,22.12
2023-05-20T15:00:17.796Z,22.00
2023-05-20T15:02:44.667Z,22.08
2023-05-20T15:05:11.590Z,22.08
2023-05-20T15:07:40.334Z,22.16
2023-05-20T15:10:07.620Z,22.19
2023-05-20T15:12:35.834Z,22.26
2023-05-20T15:15:04.344Z,22.29
2023-05-20T15:17:31.815Z,22.29
2023-05-20T15:20:02.999Z,22.22
2023-05-20T15:22:29.790Z,22.22
2023-05-20T15:24:58.308Z,22.23
2023-05-20T15:27:25.156Z,22.27
2023-05-20T15:29:56.151Z,22.33
2023-05-20T15:32:22.970Z,22.29
2023-05-20T15:34:53.865Z,22.33
2023-05-20T15:37:21.387Z,22.35
2023-05-20T15:39:48.356Z,22.29
2023-05-20T15:42:16.331Z,22.34
2023-05-20T15:44:43.268Z,22.41
2023-05-20T15:47:10.904Z,22.47
2023-05-20T15:49:37.755Z,22.55
2023-05-20T15:52:04.981Z,22.56
2023-05-20T15:54:32.893Z,22.45
2023-05-20T15:56:59.929Z,22.40
2023-05-20T15:59:28.861Z,22.37
2023-05-20T16:01:55.818Z,22.38
2023-05-20T16:04:22.893Z,22.34
2023-05-20T16:06:53.309Z,22.43
2023-05-20T16:09:20.287Z,22.41
2023-05-20T16:11:47.146Z,22.36
2023-05-20T16:14:16.372Z,22.30
2023-05-20T16:16:43.191Z,22.33
2023-05-20T16:19:10.243Z,22.27
2023-05-20T16:21:37.494Z,22.30
2023-05-20T16:24:07.770Z,22.29
2023-05-20T16:26:36.411Z,22.33
2023-05-20T16:29:04.724Z,22.38
2023-05-20T16:31:31.661Z,22.49
2023-05-20T16:33:58.785Z,22.52
2023-05-20T16:36:26.155Z,22.49
2023-05-20T16:38:53.069Z,22.46
2023-05-20T16:41:21.345Z,22.58
2023-05-20T16:43:48.839Z,22.65
2023-05-20T16:46:15.637Z,22.65
2023-05-20T16:48:43.338Z,22.63
2023-05-20T16:51:10.079Z,22.53
2023-05-20T16:53:37.532Z,22.36
2023-05-20T16:56:10.396Z,22.31
2023-05-20T16:58:37.815Z,22.17
2023-05-20T17:01:05.326Z,22.08
2023-05-20T17:03:32.249Z,22.03
2023-05-20T17:06:00.417Z,21.96
2023-05-20T17:08:27.587Z,21.93
2023-05-20T17:10:55.347Z,21.86
2023-05-20T17:13:22.310Z,21.86
2023-05-20T17:15:49.788Z,21.82
2023-05-20T17:18:45.481Z,21.78
2023-05-20T17:21:13.521Z,21.72
2023-05-20T17:23:42.741Z,21.67
2023-05-20T17:29:04.431Z,21.62
2023-05-20T17:31:31.237Z,21.61
2023-05-20T17:33:58.226Z,21.54
2023-05-20T17:36:25.277Z,21.56
2023-05-20T17:38:52.195Z,21.52
2023-05-20T17:41:19.331Z,21.47
2023-05-20T17:43:46.137Z,21.42
2023-05-20T17:46:13.997Z,21.40
2023-05-20T17:48:40.781Z,21.35
2023-05-20T17:51:09.296Z,21.35
2023-05-20T17:53:36.129Z,21.29
2023-05-20T17:56:03.087Z,21.21
2023-05-20T17:58:29.964Z,21.18
2023-05-20T18:00:56.980Z,21.04
2023-05-20T18:03:24.044Z,21.02
2023-05-20T18:05:51.250Z,20.99
2023-05-20T18:08:19.318Z,20.93
2023-05-20T18:10:46.218Z,20.87
2023-05-20T18:13:13.359Z,20.83
2023-05-20T18:15:40.196Z,20.73
2023-05-20T18:18:08.762Z,20.73
2023-05-20T18:20:35.903Z,20.55
2023-05-20T18:23:03.159Z,20.46
2023-05-20T18:25:30.026Z,20.30
2023-05-20T18:27:56.875Z,20.21
2023-05-20T18:30:23.820Z,20.08
2023-05-20T18:32:50.686Z,20.02
2023-05-20T18:35:17.688Z,20.01
2023-05-20T18:37:44.687Z,19.88
2023-05-20T18:40:12.068Z,19.79
2023-05-20T18:42:38.930Z,19.82
2023-05-20T18:45:06.329Z,19.70
2023-05-20T18:47:33.334Z,19.65
2023-05-20T18:50:00.262Z,19.60
2023-05-20T18:52:27.084Z,19.57
2023-05-20T18:54:53.903Z,19.43
2023-05-20T18:57:20.878Z,19.43
2023-05-20T18:59:47.636Z,19.41
2023-05-20T19:02:17.049Z,19.35
2023-05-20T19:04:44.924Z,19.19
2023-05-20T19:07:12.403Z,19.23
2023-05-20T19:09:39.749Z,19.13
2023-05-20T19:12:08.325Z,19.01
2023-05-20T19:14:35.213Z,18.99
2023-05-20T19:17:02.106Z,19.07
2023-05-20T19:19:29.332Z,19.03
2023-05-20T19:21:56.135Z,18.93
2023-05-20T19:24:23.787Z,18.89
2023-05-20T19:26:51.428Z,18.96
2023-05-20T19:29:18.766Z,18.92
2023-05-20T19:31:45.633Z,18.92
2023-05-20T19:34:12.567Z,18.92
2023-05-20T19:36:39.758Z,18.93
2023-05-20T19:39:06.555Z,18.75
2023-05-20T19:41:33.842Z,18.76
2023-05-20T19:44:02.301Z,18.75
2023-05-20T19:46:29.235Z,18.73
2023-05-20T19:48:58.380Z,18.69
2023-05-20T19:51:26.874Z,18.66
2023-05-20T19:54:18.545Z,18.67
2023-05-20T19:56:45.808Z,18.69
2023-05-20T19:59:13.380Z,18.71
2023-05-20T20:01:40.248Z,18.71
2023-05-20T20:04:07.850Z,18.72
2023-05-20T20:06:35.344Z,18.65
2023-05-20T20:09:02.170Z,18.67
2023-05-20T20:11:32.331Z,18.67
2023-05-20T20:13:59.280Z,18.61
2023-05-20T20:16:28.482Z,18.60
2023-05-20T20:18:55.313Z,18.60
2023-05-20T20:21:22.144Z,18.51
2023-05-20T20:23:49.382Z,18.52
2023-05-20T20:26:16.830Z,18.43
2023-05-20T20:28:43.691Z,18.39
2023-05-20T20:31:10.622Z,18.38
2023-05-20T20:33:37.394Z,18.34
2023-05-20T20:36:05.303Z,18.32
2023-05-20T20:38:32.127Z,18.24
2023-05-20T20:40:58.893Z,18.17
2023-05-20T20:43:25.820Z,18.11
2023-05-20T20:45:52.673Z,18.04
2023-05-20T20:48:19.947Z,18.01
2023-05-20T20:50:50.764Z,17.93
2023-05-20T20:53:17.532Z,17.95
2023-05-20T20:55:45.386Z,17.94
2023-05-20T20:58:12.432Z,17.93
2023-05-20T21:00:39.508Z,17.85
2023-05-20T21:03:09.348Z,17.90
2023-05-20T21:05:36.487Z,17.83
2023-05-20T21:08:04.436Z,17.72
2023-05-20T21:10:32.043Z,17.66
2023-05-20T21:12:59.474Z,17.71
2023-05-20T21:15:27.378Z,17.71
2023-05-20T21:17:55.922Z,17.65
2023-05-20T21:20:22.920Z,17.62
2023-05-20T21:22:50.904Z,17.62
2023-05-20T21:25:17.814Z,17.60
2023-05-20T21:28:10.387Z,17.49
2023-05-20T21:30:37.363Z,17.46
2023-05-20T21:33:06.187Z,17.49
2023-05-20T21:35:33.294Z,17.37
2023-05-20T21:38:01.882Z,17.32
2023-05-20T21:40:30.341Z,17.35
2023-05-20T21:42:57.787Z,17.31
2023-05-20T21:45:25.392Z,17.28
2023-05-20T21:47:52.347Z,17.24
2023-05-20T21:50:19.123Z,17.19
2023-05-20T21:55:40.229Z,17.14
2023-05-20T21:58:07.798Z,17.10
2023-05-20T22:00:35.333Z,17.08
2023-05-20T22:03:02.268Z,17.04
2023-05-20T22:05:29.413Z,17.02
2023-05-20T22:07:56.208Z,16.96
2023-05-20T22:10:26.891Z,16.93
2023-05-20T22:12:54.419Z,16.91
2023-05-20T22:15:21.378Z,16.88
2023-05-20T22:17:49.562Z,16.82
2023-05-20T22:20:16.547Z,16.80
2023-05-20T22:22:43.926Z,16.73
2023-05-20T22:25:10.981Z,16.65
2023-05-20T22:27:37.788Z,16.60
2023-05-20T22:30:06.075Z,16.61
2023-05-20T22:35:24.409Z,16.48
2023-05-20T22:37:52.128Z,16.43
2023-05-20T22:40:18.893Z,16.44
2023-05-20T22:42:45.802Z,16.38
2023-05-20T22:45:12.825Z,16.34
2023-05-20T22:47:40.030Z,16.10
2023-05-20T22:50:08.289Z,15.95
2023-05-20T22:53:00.453Z,16.01
2023-05-20T22:55:27.525Z,15.99
2023-05-20T22:57:54.870Z,15.91
2023-05-20T23:00:21.935Z,15.90
2023-05-20T23:02:51.055Z,15.87
2023-05-20T23:05:18.258Z,15.86
2023-05-20T23:07:45.202Z,15.83
2023-05-20T23:10:12.270Z,15.79
2023-05-20T23:12:39.212Z,15.77
2023-05-20T23:15:06.606Z,15.76
2023-05-20T23:17:36.461Z,15.66
2023-05-20T23:20:03.664Z,15.60
2023-05-20T23:22:32.496Z,15.51
2023-05-20T23:24:59.894Z,15.44
2023-05-20T23:27:26.766Z,15.44
2023-05-20T23:29:53.925Z,15.35
2023-05-20T23:32:20.809Z,15.36
2023-05-20T23:34:47.817Z,15.34
2023-05-20T23:37:14.742Z,15.24
2023-05-20T23:39:41.497Z,15.22
2023-05-20T23:42:08.895Z,15.25
2023-05-20T23:44:35.774Z,15.27
2023-05-20T23:47:04.484Z,15.29
2023-05-20T23:49:57.030Z,15.28
2023-05-20T23:52:26.490Z,15.21
2023-05-20T23:54:53.420Z,15.06
2023-05-20T23:57:21.458Z,15.00
2023-05-20T23:59:48.554Z,14.97
